Time;durP1;ratioP1;P1;durP2;ratioP2;P2;SDS_P1;SDS_P2;PMS_P1;PMS_P2;Temp;Humidity;BMP_temperature;BMP_pressure;BME280_temperature;BME280_humidity;BME280_pressure;Samples;Min_cycle;Max_cycle;Signal;HPM_P1;HPM_P2
2022/07/10 00:01:35;0.00;0.00;0.62;0.00;0.00;0.62;1.90;1.00;;;24.20;29.00;;;;;;2260682;61;20798;-51
2022/07/10 00:04:20;0.00;0.00;0.62;0.00;0.00;0.62;5.30;1.50;;;24.10;28.90;;;;;;2255639;61;20392;-52
2022/07/10 00:07:05;0.00;0.00;0.62;0.00;0.00;0.62;4.60;2.03;;;24.10;29.00;;;;;;2260759;61;20432;-54
2022/07/10 00:09:50;0.00;0.00;0.62;0.00;0.00;0.62;3.47;1.40;;;24.00;29.00;;;;;;2260355;61;20365;-53
2022/07/10 00:12:35;0.00;0.00;0.62;0.00;0.00;0.62;3.50;1.50;;;24.00;29.00;;;;;;2259433;61;20346;-51
2022/07/10 00:15:20;0.00;0.00;0.62;0.00;0.00;0.62;3.40;1.60;;;24.00;29.10;;;;;;2260421;61;20545;-52
2022/07/10 00:18:07;0.00;0.00;0.62;0.00;0.00;0.62;5.40;2.00;;;23.90;29.10;;;;;;2260229;61;20373;-53
2022/07/10 00:20:52;0.00;0.00;0.62;0.00;0.00;0.62;3.67;1.53;;;23.90;29.20;;;;;;2259956;61;20912;-51
2022/07/10 00:23:37;0.00;0.00;0.62;0.00;0.00;0.62;3.20;1.47;;;23.80;29.10;;;;;;2257341;61;20428;-52
2022/07/10 00:26:21;0.00;0.00;0.62;0.00;0.00;0.62;3.50;1.07;;;23.80;29.20;;;;;;2258941;61;20841;-52
2022/07/10 00:29:06;0.00;0.00;0.62;0.00;0.00;0.62;4.10;1.60;;;23.80;29.30;;;;;;2260401;61;20411;-54
2022/07/10 00:31:51;0.00;0.00;0.62;0.00;0.00;0.62;4.70;1.70;;;23.70;29.20;;;;;;2260352;61;20457;-52
2022/07/10 00:34:38;0.00;0.00;0.62;0.00;0.00;0.62;7.57;1.27;;;23.70;29.20;;;;;;2258883;61;20385;-52
2022/07/10 00:37:23;0.00;0.00;0.62;0.00;0.00;0.62;3.60;1.50;;;23.70;29.20;;;;;;2260427;61;20369;-53
2022/07/10 00:40:08;0.00;0.00;0.62;0.00;0.00;0.62;3.80;1.17;;;23.70;29.20;;;;;;2259843;61;20810;-52
2022/07/10 00:42:53;0.00;0.00;0.62;0.00;0.00;0.62;3.60;1.30;;;23.60;29.10;;;;;;2259465;61;20389;-52
2022/07/10 00:45:38;0.00;0.00;0.62;0.00;0.00;0.62;6.03;1.33;;;23.60;29.20;;;;;;2260415;61;20909;-53
2022/07/10 00:48:23;0.00;0.00;0.62;0.00;0.00;0.62;8.53;1.57;;;23.50;29.10;;;;;;2259238;61;20380;-53
2022/07/10 00:51:09;0.00;0.00;0.62;0.00;0.00;0.62;3.60;1.63;;;23.50;29.30;;;;;;2260447;61;20393;-52
2022/07/10 00:53:55;0.00;0.00;0.62;0.00;0.00;0.62;4.73;1.40;;;23.40;29.30;;;;;;2260033;61;20488;-53
2022/07/10 00:56:42;0.00;0.00;0.62;0.00;0.00;0.62;2.83;1.30;;;23.40;29.40;;;;;;2259175;61;20384;-54
2022/07/10 00:59:28;0.00;0.00;0.62;0.00;0.00;0.62;4.53;1.43;;;23.30;29.40;;;;;;2260294;61;20873;-52
2022/07/10 01:02:13;0.00;0.00;0.62;0.00;0.00;0.62;2.23;1.20;;;23.30;29.50;;;;;;2259838;61;20435;-52
2022/07/10 01:04:58;0.00;0.00;0.62;0.00;0.00;0.62;3.60;1.40;;;23.20;29.50;;;;;;2258865;61;20388;-52
2022/07/10 01:07:44;0.00;0.00;0.62;0.00;0.00;0.62;3.77;1.30;;;23.20;29.60;;;;;;2260198;61;20365;-53
2022/07/10 01:10:29;0.00;0.00;0.62;0.00;0.00;0.62;3.23;1.37;;;23.10;29.50;;;;;;2259101;61;20962;-52
2022/07/10 01:13:14;0.00;0.00;0.62;0.00;0.00;0.62;2.40;1.10;;;23.10;29.60;;;;;;2260094;61;20396;-50
2022/07/10 01:15:59;0.00;0.00;0.62;0.00;0.00;0.62;3.93;1.40;;;23.10;29.60;;;;;;2260224;61;20799;-53
2022/07/10 01:18:44;0.00;0.00;0.62;0.00;0.00;0.62;4.67;1.57;;;23.10;30.20;;;;;;2258814;61;20361;-52
2022/07/10 01:21:32;0.00;0.00;0.62;0.00;0.00;0.62;5.17;1.70;;;23.00;29.70;;;;;;2260055;61;20388;-54
2022/07/10 01:24:17;0.00;0.00;0.62;0.00;0.00;0.62;3.93;1.37;;;23.00;29.70;;;;;;2259504;61;20925;-52
2022/07/10 01:27:02;0.00;0.00;0.62;0.00;0.00;0.62;3.30;1.30;;;23.00;29.70;;;;;;2258947;61;20423;-52
2022/07/10 01:29:48;0.00;0.00;0.62;0.00;0.00;0.62;3.50;1.57;;;23.00;29.80;;;;;;2260284;61;20360;-52
2022/07/10 01:32:40;0.00;0.00;0.62;0.00;0.00;0.62;2.40;1.13;;;22.90;29.80;;;;;;2255828;61;20361;-55
2022/07/10 01:35:25;0.00;0.00;0.62;0.00;0.00;0.62;2.70;1.20;;;22.90;29.80;;;;;;2259917;61;20388;-51
2022/07/10 01:38:11;0.00;0.00;0.62;0.00;0.00;0.62;4.27;1.33;;;22.90;29.90;;;;;;2260039;61;20372;-55
2022/07/10 01:40:56;0.00;0.00;0.62;0.00;0.00;0.62;3.40;1.07;;;22.80;29.80;;;;;;2258629;61;20434;-55
2022/07/10 01:43:42;0.00;0.00;0.62;0.00;0.00;0.62;2.33;1.23;;;22.80;29.80;;;;;;2259753;61;20449;-54
2022/07/10 01:46:27;0.00;0.00;0.62;0.00;0.00;0.62;3.83;1.07;;;22.80;29.90;;;;;;2259608;61;20376;-53
2022/07/10 01:49:13;0.00;0.00;0.62;0.00;0.00;0.62;2.20;1.33;;;22.80;29.90;;;;;;2258706;61;20409;-50
2022/07/10 01:51:57;0.00;0.00;0.62;0.00;0.00;0.62;3.70;1.20;;;22.70;29.90;;;;;;2259071;61;20416;-48
2022/07/10 01:54:44;0.00;0.00;0.62;0.00;0.00;0.62;4.60;1.30;;;22.70;30.00;;;;;;2258336;61;20468;-54
2022/07/10 01:57:28;0.00;0.00;0.62;0.00;0.00;0.62;12.07;1.40;;;22.70;30.00;;;;;;2259737;61;20492;-50
2022/07/10 02:00:14;0.00;0.00;0.62;0.00;0.00;0.62;2.50;1.30;;;22.70;30.00;;;;;;2259845;61;20400;-50
2022/07/10 02:06:09;0.00;0.00;0.62;0.00;0.00;0.62;5.87;1.70;;;22.60;30.20;;;;;;2255044;61;20404;-50
2022/07/10 02:08:54;0.00;0.00;0.62;0.00;0.00;0.62;4.03;1.23;;;22.60;30.40;;;;;;2259264;61;20785;-50
2022/07/10 02:11:41;0.00;0.00;0.62;0.00;0.00;0.62;5.63;1.27;;;22.60;30.40;;;;;;2258665;61;20575;-50
2022/07/10 02:14:25;0.00;0.00;0.62;0.00;0.00;0.62;2.93;1.53;;;22.50;30.40;;;;;;2259392;61;20420;-51
2022/07/10 02:17:11;0.00;0.00;0.62;0.00;0.00;0.62;6.93;1.60;;;22.50;30.40;;;;;;2255258;61;21074;-52
2022/07/10 02:19:56;0.00;0.00;0.62;0.00;0.00;0.62;2.93;1.10;;;22.40;30.50;;;;;;2259838;61;20400;-50
2022/07/10 02:22:41;0.00;0.00;0.62;0.00;0.00;0.62;4.50;1.53;;;22.40;30.50;;;;;;2259715;61;20420;-50
2022/07/10 02:25:25;0.00;0.00;0.62;0.00;0.00;0.62;4.80;1.40;;;22.40;30.60;;;;;;2257762;61;20400;-49
2022/07/10 02:28:12;0.00;0.00;0.62;0.00;0.00;0.62;3.20;1.00;;;22.40;30.70;;;;;;2259814;61;20897;-52
2022/07/10 02:30:57;0.00;0.00;0.62;0.00;0.00;0.62;3.43;1.43;;;22.30;30.80;;;;;;2259429;61;20373;-51
2022/07/10 02:33:42;0.00;0.00;0.62;0.00;0.00;0.62;4.03;1.63;;;22.20;30.80;;;;;;2255552;61;20389;-52
2022/07/10 02:36:27;0.00;0.00;0.62;0.00;0.00;0.62;3.60;1.37;;;22.20;30.90;;;;;;2260158;61;20916;-52
2022/07/10 02:39:12;0.00;0.00;0.62;0.00;0.00;0.62;3.70;1.63;;;22.10;31.60;;;;;;2259389;61;20384;-56
2022/07/10 02:41:57;0.00;0.00;0.62;0.00;0.00;0.62;2.43;1.17;;;22.10;31.00;;;;;;2260968;61;20967;-54
2022/07/10 02:44:43;0.00;0.00;0.62;0.00;0.00;0.62;3.20;1.10;;;22.10;31.10;;;;;;2256949;61;20527;-53
2022/07/10 02:47:28;0.00;0.00;0.62;0.00;0.00;0.62;3.63;1.13;;;22.10;31.20;;;;;;2259283;61;20418;-57
2022/07/10 02:50:13;0.00;0.00;0.62;0.00;0.00;0.62;3.13;1.03;;;22.10;31.10;;;;;;2262496;61;21040;-53
2022/07/10 02:53:00;0.00;0.00;0.62;0.00;0.00;0.62;4.20;1.20;;;22.10;31.20;;;;;;2261533;61;20364;-54
2022/07/10 02:55:45;0.00;0.00;0.62;0.00;0.00;0.62;6.50;1.83;;;22.10;31.10;;;;;;2260817;61;20419;-57
2022/07/10 02:58:31;0.00;0.00;0.62;0.00;0.00;0.62;3.27;1.10;;;22.10;31.20;;;;;;2260515;61;20415;-53
2022/07/10 03:01:17;0.00;0.00;0.62;0.00;0.00;0.62;3.73;1.03;;;22.10;31.30;;;;;;2260000;61;20380;-53
2022/07/10 03:04:02;0.00;0.00;0.62;0.00;0.00;0.62;2.87;1.23;;;22.10;31.40;;;;;;2260384;61;20420;-52
2022/07/10 03:06:47;0.00;0.00;0.62;0.00;0.00;0.62;2.20;1.10;;;22.10;31.40;;;;;;2260570;61;20384;-54
2022/07/10 03:09:32;0.00;0.00;0.62;0.00;0.00;0.62;4.47;1.33;;;22.10;31.50;;;;;;2259221;61;20368;-53
2022/07/10 03:12:16;0.00;0.00;0.62;0.00;0.00;0.62;4.50;1.07;;;22.10;31.50;;;;;;2260646;61;20364;-55
2022/07/10 03:15:01;0.00;0.00;0.62;0.00;0.00;0.62;3.00;1.23;;;22.10;31.50;;;;;;2260512;61;20927;-54
2022/07/10 03:17:48;0.00;0.00;0.62;0.00;0.00;0.62;3.70;1.20;;;22.10;31.50;;;;;;2259432;61;20377;-53
2022/07/10 03:20:32;0.00;0.00;0.62;0.00;0.00;0.62;3.93;1.07;;;22.10;31.60;;;;;;2260575;61;20422;-56
2022/07/10 03:23:17;0.00;0.00;0.62;0.00;0.00;0.62;3.70;1.03;;;22.10;31.60;;;;;;2259660;61;20689;-55
2022/07/10 03:26:02;0.00;0.00;0.62;0.00;0.00;0.62;5.40;1.67;;;22.10;31.70;;;;;;2260074;61;20507;-53
2022/07/10 03:28:47;0.00;0.00;0.62;0.00;0.00;0.62;6.17;1.27;;;22.10;31.70;;;;;;2260689;61;20453;-54
2022/07/10 03:31:31;0.00;0.00;0.62;0.00;0.00;0.62;4.13;1.47;;;22.10;31.90;;;;;;2259335;61;20365;-53
2022/07/10 03:34:18;0.00;0.00;0.62;0.00;0.00;0.62;3.17;0.97;;;22.10;31.90;;;;;;2260103;61;20385;-53
2022/07/10 03:37:03;0.00;0.00;0.62;0.00;0.00;0.62;3.50;1.37;;;22.10;31.90;;;;;;2260444;61;20885;-55
2022/07/10 03:39:48;0.00;0.00;0.62;0.00;0.00;0.62;2.90;1.07;;;22.00;31.90;;;;;;2258872;61;20828;-50
2022/07/10 03:42:33;0.00;0.00;0.62;0.00;0.00;0.62;3.37;1.50;;;22.00;31.90;;;;;;2260199;61;20389;-53
2022/07/10 03:45:18;0.00;0.00;0.62;0.00;0.00;0.62;3.50;1.30;;;22.10;32.80;;;;;;2256360;61;20381;-50
2022/07/10 03:48:03;0.00;0.00;0.62;0.00;0.00;0.62;1.97;1.00;;;22.00;32.00;;;;;;2259492;61;20452;-52
2022/07/10 03:50:51;0.00;0.00;0.62;0.00;0.00;0.62;3.43;1.20;;;22.00;32.00;;;;;;2260213;61;20383;-53
2022/07/10 03:53:37;0.00;0.00;0.62;0.00;0.00;0.62;6.80;2.53;;;22.00;32.10;;;;;;2258632;61;20412;-52
2022/07/10 03:59:25;0.00;0.00;0.62;0.00;0.00;0.62;3.90;1.83;;;22.00;32.30;;;;;;2260398;61;20365;-56
2022/07/10 04:02:11;0.00;0.00;0.62;0.00;0.00;0.62;3.50;1.17;;;22.00;32.30;;;;;;2259146;61;20427;-54
2022/07/10 04:04:56;0.00;0.00;0.62;0.00;0.00;0.62;1.70;0.97;;;22.00;32.40;;;;;;2259806;61;20462;-51
2022/07/10 04:07:42;0.00;0.00;0.62;0.00;0.00;0.62;3.83;1.30;;;21.90;32.30;;;;;;2259640;61;20411;-52
2022/07/10 04:10:29;0.00;0.00;0.62;0.00;0.00;0.62;4.23;1.60;;;21.90;32.40;;;;;;2259816;61;20361;-51
2022/07/10 04:13:14;0.00;0.00;0.62;0.00;0.00;0.62;5.20;1.70;;;21.90;32.50;;;;;;2259909;61;20419;-51
2022/07/10 04:15:59;0.00;0.00;0.62;0.00;0.00;0.62;2.27;1.00;;;21.90;32.50;;;;;;2258664;61;20397;-52
2022/07/10 04:18:44;0.00;0.00;0.62;0.00;0.00;0.62;5.20;1.73;;;21.90;32.60;;;;;;2260125;61;20364;-52
2022/07/10 04:21:28;0.00;0.00;0.62;0.00;0.00;0.62;4.30;1.20;;;21.90;32.60;;;;;;2260304;61;20377;-52
2022/07/10 04:24:15;0.00;0.00;0.62;0.00;0.00;0.62;4.97;1.63;;;21.90;32.60;;;;;;2258852;61;20387;-53
2022/07/10 04:27:00;0.00;0.00;0.62;0.00;0.00;0.62;4.90;1.27;;;21.90;32.70;;;;;;2260312;61;20406;-53
2022/07/10 04:29:45;0.00;0.00;0.62;0.00;0.00;0.62;2.90;1.07;;;21.90;32.70;;;;;;2259657;61;20832;-53
2022/07/10 04:32:30;0.00;0.00;0.62;0.00;0.00;0.62;6.43;1.27;;;21.90;32.70;;;;;;2259874;61;20444;-51
2022/07/10 04:35:15;0.00;0.00;0.62;0.00;0.00;0.62;2.93;1.20;;;21.90;32.80;;;;;;2260357;61;20401;-52
2022/07/10 04:37:59;0.00;0.00;0.62;0.00;0.00;0.62;3.23;1.20;;;21.90;32.70;;;;;;2259062;61;20381;-51
2022/07/10 04:40:45;0.00;0.00;0.62;0.00;0.00;0.62;4.17;1.27;;;21.90;32.70;;;;;;2260515;61;20431;-52
2022/07/10 04:43:30;0.00;0.00;0.62;0.00;0.00;0.62;3.60;1.20;;;21.90;32.70;;;;;;2260490;61;20396;-52
2022/07/10 04:46:15;0.00;0.00;0.62;0.00;0.00;0.62;3.37;1.00;;;21.90;32.60;;;;;;2255592;61;20364;-52
2022/07/10 04:49:00;0.00;0.00;0.62;0.00;0.00;0.62;4.17;1.30;;;21.90;32.60;;;;;;2260357;61;20376;-54
2022/07/10 04:51:45;0.00;0.00;0.62;0.00;0.00;0.62;6.87;2.13;;;21.90;32.60;;;;;;2260043;61;20337;-52
2022/07/10 04:54:30;0.00;0.00;0.62;0.00;0.00;0.62;3.70;1.20;;;21.90;32.70;;;;;;2259980;61;20392;-55
2022/07/10 04:57:16;0.00;0.00;0.62;0.00;0.00;0.62;4.20;1.10;;;21.90;32.70;;;;;;2261112;61;20415;-54
2022/07/10 05:00:01;0.00;0.00;0.62;0.00;0.00;0.62;6.10;1.63;;;21.90;32.60;;;;;;2259859;61;20411;-53
2022/07/10 05:02:46;0.00;0.00;0.62;0.00;0.00;0.62;5.37;1.17;;;21.90;32.50;;;;;;2260966;61;20968;-52
2022/07/10 05:05:31;0.00;0.00;0.62;0.00;0.00;0.62;3.50;1.37;;;21.90;32.50;;;;;;2261119;61;20494;-52
2022/07/10 05:08:15;0.00;0.00;0.62;0.00;0.00;0.62;4.90;1.80;;;21.90;32.50;;;;;;2259256;61;21017;-52
2022/07/10 05:11:00;0.00;0.00;0.62;0.00;0.00;0.62;2.67;1.07;;;21.90;32.60;;;;;;2260760;61;20372;-51
2022/07/10 05:13:48;0.00;0.00;0.62;0.00;0.00;0.62;2.00;1.00;;;21.90;32.60;;;;;;2260015;61;20381;-53
2022/07/10 05:16:32;0.00;0.00;0.62;0.00;0.00;0.62;2.43;1.03;;;21.90;32.70;;;;;;2259805;61;20431;-51
2022/07/10 05:19:17;0.00;0.00;0.62;0.00;0.00;0.62;3.67;1.47;;;21.90;32.70;;;;;;2260736;61;20796;-55
2022/07/10 05:22:03;0.00;0.00;0.62;0.00;0.00;0.62;4.57;1.40;;;21.90;32.70;;;;;;2259820;61;20450;-52
2022/07/10 05:24:48;0.00;0.00;0.62;0.00;0.00;0.62;3.87;1.50;;;21.90;32.80;;;;;;2260726;61;20392;-55
2022/07/10 05:27:33;0.00;0.00;0.62;0.00;0.00;0.62;2.53;1.30;;;21.90;32.80;;;;;;2260853;61;20361;-51
2022/07/10 05:30:20;0.00;0.00;0.62;0.00;0.00;0.62;4.50;1.47;;;21.90;32.80;;;;;;2259140;61;20415;-52
2022/07/10 05:33:05;0.00;0.00;0.62;0.00;0.00;0.62;5.37;1.13;;;21.90;32.80;;;;;;2260846;61;20384;-53
2022/07/10 05:35:50;0.00;0.00;0.62;0.00;0.00;0.62;2.80;1.10;;;21.90;32.80;;;;;;2260727;61;20445;-51
2022/07/10 05:38:34;0.00;0.00;0.62;0.00;0.00;0.62;3.20;1.10;;;21.90;32.80;;;;;;2259575;61;20353;-52
2022/07/10 05:41:19;0.00;0.00;0.62;0.00;0.00;0.62;4.20;1.40;;;21.90;32.80;;;;;;2260345;61;20432;-51
2022/07/10 05:44:05;0.00;0.00;0.62;0.00;0.00;0.62;3.00;1.27;;;21.90;32.80;;;;;;2259304;61;20420;-52
2022/07/10 05:46:51;0.00;0.00;0.62;0.00;0.00;0.62;6.97;1.40;;;21.90;32.70;;;;;;2259760;61;20405;-53
2022/07/10 05:49:36;0.00;0.00;0.62;0.00;0.00;0.62;3.90;1.27;;;21.90;32.70;;;;;;2260190;61;20365;-52
2022/07/10 05:52:21;0.00;0.00;0.62;0.00;0.00;0.62;5.13;1.77;;;22.00;32.80;;;;;;2258878;61;20815;-49
2022/07/10 05:55:07;0.00;0.00;0.62;0.00;0.00;0.62;3.97;1.37;;;22.00;32.80;;;;;;2260209;61;20467;-52
2022/07/10 05:57:54;0.00;0.00;0.62;0.00;0.00;0.62;2.17;1.03;;;22.00;32.80;;;;;;2260553;61;20395;-52
2022/07/10 06:00:39;0.00;0.00;0.62;0.00;0.00;0.62;2.47;1.10;;;22.00;32.80;;;;;;2259351;61;20365;-51
2022/07/10 06:03:26;0.00;0.00;0.62;0.00;0.00;0.62;2.73;1.30;;;22.00;32.70;;;;;;2260564;61;20404;-51
2022/07/10 06:06:15;0.00;0.00;0.62;0.00;0.00;0.62;3.20;1.27;;;22.00;32.70;;;;;;2259947;61;20369;-52
2022/07/10 06:09:00;0.00;0.00;0.62;0.00;0.00;0.62;3.40;1.10;;;22.00;32.70;;;;;;2260553;61;20364;-51
2022/07/10 06:11:48;0.00;0.00;0.62;0.00;0.00;0.62;4.63;1.80;;;22.00;32.70;;;;;;2261275;61;20365;-51
2022/07/10 06:14:32;0.00;0.00;0.62;0.00;0.00;0.62;4.30;1.30;;;22.00;32.80;;;;;;2259423;61;20789;-51
2022/07/10 06:17:18;0.00;0.00;0.62;0.00;0.00;0.62;4.43;1.33;;;22.00;32.80;;;;;;2261052;61;20376;-53
2022/07/10 06:20:06;0.00;0.00;0.62;0.00;0.00;0.62;3.90;1.67;;;22.00;32.80;;;;;;2261358;61;20397;-52
2022/07/10 06:22:51;0.00;0.00;0.62;0.00;0.00;0.62;3.20;1.10;;;22.00;32.80;;;;;;2260116;61;20428;-52
2022/07/10 06:25:35;0.00;0.00;0.62;0.00;0.00;0.62;4.53;2.03;;;22.10;32.90;;;;;;2260788;61;20380;-54
2022/07/10 06:28:20;0.00;0.00;0.62;0.00;0.00;0.62;3.20;1.37;;;22.10;32.90;;;;;;2260473;61;20524;-52
2022/07/10 06:31:05;0.00;0.00;0.62;0.00;0.00;0.62;3.70;1.40;;;22.10;32.80;;;;;;2257513;61;20361;-51
2022/07/10 06:33:50;0.00;0.00;0.62;0.00;0.00;0.62;2.10;1.30;;;22.10;32.80;;;;;;2261287;61;20385;-51
2022/07/10 06:36:37;0.00;0.00;0.62;0.00;0.00;0.62;4.33;1.40;;;22.10;32.70;;;;;;2260114;61;21002;-51
2022/07/10 06:39:22;0.00;0.00;0.62;0.00;0.00;0.62;2.63;1.20;;;22.10;32.70;;;;;;2261568;61;20812;-51
2022/07/10 06:42:07;0.00;0.00;0.62;0.00;0.00;0.62;3.50;1.23;;;22.10;32.70;;;;;;2261383;61;20392;-52
2022/07/10 06:44:58;0.00;0.00;0.62;0.00;0.00;0.62;1.93;1.23;;;22.10;32.80;;;;;;2259757;61;20412;-54
2022/07/10 06:47:55;0.00;0.00;0.62;0.00;0.00;0.62;3.50;1.20;;;22.10;32.80;;;;;;2260929;61;20368;-53
2022/07/10 06:50:41;0.00;0.00;0.62;0.00;0.00;0.62;4.77;1.43;;;22.10;32.80;;;;;;2259867;61;20373;-53
2022/07/10 06:53:28;0.00;0.00;0.62;0.00;0.00;0.62;4.10;1.50;;;22.10;32.80;;;;;;2260381;61;20369;-55
2022/07/10 06:56:15;0.00;0.00;0.62;0.00;0.00;0.62;2.70;1.40;;;22.10;32.80;;;;;;2257372;61;20373;-52
2022/07/10 06:59:00;0.00;0.00;0.62;0.00;0.00;0.62;4.80;1.53;;;22.10;32.90;;;;;;2258851;61;20881;-50
2022/07/10 07:01:45;0.00;0.00;0.62;0.00;0.00;0.62;2.80;1.30;;;22.10;33.00;;;;;;2260710;61;20385;-49
2022/07/10 07:04:30;0.00;0.00;0.62;0.00;0.00;0.62;5.40;1.50;;;22.10;33.00;;;;;;2257792;61;20795;-55
2022/07/10 07:07:15;0.00;0.00;0.62;0.00;0.00;0.62;2.27;1.00;;;22.20;33.20;;;;;;2263333;61;20398;-59
2022/07/10 07:10:03;0.00;0.00;0.62;0.00;0.00;0.62;2.53;1.20;;;22.20;33.20;;;;;;2266043;61;20385;-58
2022/07/10 07:12:48;0.00;0.00;0.62;0.00;0.00;0.62;5.20;1.30;;;22.20;33.30;;;;;;2262572;61;20364;-55
2022/07/10 07:15:38;0.00;0.00;0.62;0.00;0.00;0.62;2.23;1.20;;;22.20;33.20;;;;;;2265645;61;20434;-54
2022/07/10 07:18:31;0.00;0.00;0.62;0.00;0.00;0.62;2.50;1.23;;;22.30;33.30;;;;;;2266685;61;20359;-56
2022/07/10 07:24:20;0.00;0.00;0.62;0.00;0.00;0.62;6.43;1.10;;;22.30;33.30;;;;;;2263802;61;20404;-53
2022/07/10 07:27:07;0.00;0.00;0.62;0.00;0.00;0.62;5.00;1.30;;;22.30;33.40;;;;;;2263895;61;20364;-56
2022/07/10 07:29:51;0.00;0.00;0.62;0.00;0.00;0.62;3.60;2.00;;;22.40;33.50;;;;;;2261559;61;20394;-56
2022/07/10 07:32:37;0.00;0.00;0.62;0.00;0.00;0.62;1.83;1.00;;;22.40;33.40;;;;;;2262131;61;20935;-57
2022/07/10 07:35:22;0.00;0.00;0.62;0.00;0.00;0.62;3.10;1.47;;;22.40;33.30;;;;;;2264025;61;20911;-56
2022/07/10 07:38:07;0.00;0.00;0.62;0.00;0.00;0.62;2.30;1.10;;;22.50;33.40;;;;;;2264392;61;20355;-54
2022/07/10 07:40:52;0.00;0.00;0.62;0.00;0.00;0.62;3.83;1.40;;;22.60;33.40;;;;;;2261826;61;20896;-53
2022/07/10 07:43:38;0.00;0.00;0.62;0.00;0.00;0.62;2.53;1.43;;;22.60;33.40;;;;;;2263247;61;20941;-54
2022/07/10 07:46:24;0.00;0.00;0.62;0.00;0.00;0.62;3.37;1.47;;;22.60;33.30;;;;;;2260974;61;20925;-50
2022/07/10 07:49:09;0.00;0.00;0.62;0.00;0.00;0.62;3.17;1.50;;;22.70;33.40;;;;;;2262926;61;20911;-53
2022/07/10 07:51:54;0.00;0.00;0.62;0.00;0.00;0.62;3.50;1.30;;;22.70;33.30;;;;;;2263201;61;20356;-48
2022/07/10 07:54:39;0.00;0.00;0.62;0.00;0.00;0.62;3.83;1.90;;;22.70;33.20;;;;;;2264233;61;20484;-52
2022/07/10 07:57:24;0.00;0.00;0.62;0.00;0.00;0.62;2.70;1.13;;;22.80;33.20;;;;;;2262277;61;20896;-51
2022/07/10 08:00:12;0.00;0.00;0.62;0.00;0.00;0.62;3.53;1.27;;;22.80;33.20;;;;;;2260760;61;20969;-51
2022/07/10 08:03:00;0.00;0.00;0.62;0.00;0.00;0.62;4.67;1.50;;;22.80;33.20;;;;;;2264039;61;20428;-55
2022/07/10 08:05:45;0.00;0.00;0.62;0.00;0.00;0.62;4.90;1.43;;;22.90;33.10;;;;;;2261809;61;20486;-49
2022/07/10 08:08:30;0.00;0.00;0.62;0.00;0.00;0.62;6.90;1.30;;;22.90;33.10;;;;;;2532847;53;20373;-56
2022/07/10 08:11:15;0.00;0.00;0.62;0.00;0.00;0.62;4.20;1.50;;;23.00;33.10;;;;;;2260232;61;20384;-55
2022/07/10 08:14:00;0.00;0.00;0.62;0.00;0.00;0.62;2.03;1.20;;;23.00;33.00;;;;;;2259565;61;20492;-53
2022/07/10 08:16:46;0.00;0.00;0.62;0.00;0.00;0.62;3.77;1.57;;;23.00;33.00;;;;;;2257465;61;20379;-49
2022/07/10 08:19:32;0.00;0.00;0.62;0.00;0.00;0.62;3.27;1.53;;;23.10;33.00;;;;;;2263492;61;20388;-56
2022/07/10 08:22:17;0.00;0.00;0.62;0.00;0.00;0.62;2.50;1.50;;;23.10;32.90;;;;;;2263921;61;20442;-55
2022/07/10 08:25:01;0.00;0.00;0.62;0.00;0.00;0.62;2.67;1.50;;;23.20;33.00;;;;;;2264090;61;20398;-55
2022/07/10 08:27:47;0.00;0.00;0.62;0.00;0.00;0.62;4.17;1.50;;;23.20;32.90;;;;;;2259281;61;20489;-62
2022/07/10 08:30:32;0.00;0.00;0.62;0.00;0.00;0.62;3.10;1.27;;;23.20;32.80;;;;;;2257814;61;20407;-51
2022/07/10 08:33:19;0.00;0.00;0.62;0.00;0.00;0.62;3.87;1.00;;;23.30;32.80;;;;;;2262627;61;20418;-54
2022/07/10 08:36:05;0.00;0.00;0.62;0.00;0.00;0.62;3.37;1.40;;;23.30;32.90;;;;;;2261730;61;20456;-56
2022/07/10 08:38:49;0.00;0.00;0.62;0.00;0.00;0.62;3.03;1.80;;;23.40;32.90;;;;;;2262848;61;20880;-50
2022/07/10 08:41:36;0.00;0.00;0.62;0.00;0.00;0.62;3.00;1.20;;;23.40;32.70;;;;;;2260500;61;20360;-54
2022/07/10 08:44:21;0.00;0.00;0.62;0.00;0.00;0.62;3.73;1.60;;;23.40;32.70;;;;;;2261659;61;20955;-57
2022/07/10 08:47:06;0.00;0.00;0.62;0.00;0.00;0.62;2.20;1.17;;;23.50;32.80;;;;;;2453108;45;20364;-62
2022/07/10 08:49:52;0.00;0.00;0.62;0.00;0.00;0.62;3.57;1.40;;;23.50;32.70;;;;;;2262383;61;20449;-57
2022/07/10 08:52:43;0.00;0.00;0.62;0.00;0.00;0.62;2.50;1.17;;;23.60;32.80;;;;;;2263897;61;20834;-52
2022/07/10 08:55:28;0.00;0.00;0.62;0.00;0.00;0.62;2.70;1.10;;;23.60;32.70;;;;;;2264229;61;20383;-61
2022/07/10 08:58:14;0.00;0.00;0.62;0.00;0.00;0.62;2.40;1.10;;;23.70;32.70;;;;;;2263877;61;20367;-54
2022/07/10 09:00:58;0.00;0.00;0.62;0.00;0.00;0.62;3.73;1.43;;;23.70;32.70;;;;;;2263575;61;21499;-53
2022/07/10 09:03:45;0.00;0.00;0.62;0.00;0.00;0.62;3.50;1.43;;;23.80;32.70;;;;;;2262835;61;20472;-55
2022/07/10 09:06:32;0.00;0.00;0.62;0.00;0.00;0.62;1.97;1.10;;;23.80;32.60;;;;;;2262961;61;20930;-57
2022/07/10 09:09:17;0.00;0.00;0.62;0.00;0.00;0.62;2.37;1.00;;;23.80;32.60;;;;;;2263800;61;20376;-55
2022/07/10 09:12:04;0.00;0.00;0.62;0.00;0.00;0.62;2.63;1.10;;;23.90;32.60;;;;;;2262803;61;20399;-51
2022/07/10 09:14:49;0.00;0.00;0.62;0.00;0.00;0.62;5.90;1.43;;;23.90;32.60;;;;;;2263375;61;20391;-49
2022/07/10 09:17:50;0.00;0.00;0.62;0.00;0.00;0.62;3.00;1.30;;;23.90;32.50;;;;;;2261518;61;20711;-54
2022/07/10 09:20:37;0.00;0.00;0.62;0.00;0.00;0.62;2.00;1.10;;;23.90;32.40;;;;;;2341697;58;20996;-58
2022/07/10 09:23:25;0.00;0.00;0.62;0.00;0.00;0.62;3.93;1.30;;;23.90;32.40;;;;;;2268271;61;20919;-51
2022/07/10 09:26:10;0.00;0.00;0.62;0.00;0.00;0.62;3.97;1.70;;;24.00;32.50;;;;;;2267094;61;20367;-51
2022/07/10 09:29:07;0.00;0.00;0.62;0.00;0.00;0.62;2.70;1.10;;;24.00;32.50;;;;;;2267218;61;20767;-52
2022/07/10 09:31:54;0.00;0.00;0.62;0.00;0.00;0.62;2.90;1.20;;;24.10;32.50;;;;;;2298534;58;20450;-52
2022/07/10 09:34:42;0.00;0.00;0.62;0.00;0.00;0.62;3.70;1.13;;;24.10;32.50;;;;;;2261893;61;20958;-57
2022/07/10 09:50:22;0.00;0.00;0.62;0.00;0.00;0.62;3.10;1.53;;;24.30;32.60;;;;;;2438639;56;20435;-67
2022/07/10 09:53:12;0.00;0.00;0.62;0.00;0.00;0.62;3.60;1.33;;;24.30;32.60;;;;;;2233858;62;20395;-67
2022/07/10 09:55:59;0.00;0.00;0.62;0.00;0.00;0.62;4.10;1.40;;;24.30;32.60;;;;;;2233453;62;20396;-68
2022/07/10 09:58:50;0.00;0.00;0.62;0.00;0.00;0.62;2.00;1.30;;;24.30;32.60;;;;;;2232797;62;20367;-63
2022/07/10 10:01:37;0.00;0.00;0.62;0.00;0.00;0.62;3.50;1.37;;;24.40;32.60;;;;;;2230866;62;20639;-64
2022/07/10 10:04:24;0.00;0.00;0.62;0.00;0.00;0.62;2.77;1.20;;;24.40;32.50;;;;;;2230128;62;20364;-67
2022/07/10 10:07:13;0.00;0.00;0.62;0.00;0.00;0.62;2.73;1.73;;;24.50;32.40;;;;;;2227255;62;20422;-63
2022/07/10 10:10:00;0.00;0.00;0.62;0.00;0.00;0.62;2.07;1.20;;;24.50;32.40;;;;;;2230101;62;20757;-63
2022/07/10 10:12:52;0.00;0.00;0.62;0.00;0.00;0.62;2.50;1.27;;;24.60;32.30;;;;;;2229559;62;20610;-64
2022/07/10 10:15:39;0.00;0.00;0.62;0.00;0.00;0.62;3.60;1.37;;;24.60;32.10;;;;;;2230207;62;20392;-65
2022/07/10 10:18:26;0.00;0.00;0.62;0.00;0.00;0.62;2.47;1.50;;;24.70;32.10;;;;;;2493880;54;20404;-66
2022/07/10 10:21:12;0.00;0.00;0.62;0.00;0.00;0.62;6.27;1.40;;;24.70;32.10;;;;;;2225530;62;20495;-65
2022/07/10 10:24:00;0.00;0.00;0.62;0.00;0.00;0.62;3.40;1.73;;;24.70;32.10;;;;;;2227603;62;20621;-66
2022/07/10 10:26:45;0.00;0.00;0.62;0.00;0.00;0.62;2.23;1.30;;;24.70;32.00;;;;;;2459345;54;20349;-67
2022/07/10 10:29:30;0.00;0.00;0.62;0.00;0.00;0.62;2.17;1.17;;;24.80;32.70;;;;;;2229477;62;20588;-66
2022/07/10 10:32:16;0.00;0.00;0.62;0.00;0.00;0.62;3.30;1.80;;;24.80;31.90;;;;;;2230489;62;20481;-66
2022/07/10 10:35:01;0.00;0.00;0.62;0.00;0.00;0.62;2.03;1.20;;;24.80;31.90;;;;;;2229773;62;20414;-66
2022/07/10 10:37:51;0.00;0.00;0.62;0.00;0.00;0.62;2.60;1.43;;;24.90;31.90;;;;;;2230168;62;20383;-66
2022/07/10 10:40:37;0.00;0.00;0.62;0.00;0.00;0.62;6.10;1.67;;;24.90;31.70;;;;;;2228446;62;20477;-66
2022/07/10 10:43:24;0.00;0.00;0.62;0.00;0.00;0.62;2.53;1.00;;;25.00;31.80;;;;;;2229524;62;20440;-69
2022/07/10 10:46:25;0.00;0.00;0.62;0.00;0.00;0.62;3.30;1.40;;;25.00;31.60;;;;;;2230204;62;20405;-66
2022/07/10 10:49:09;0.00;0.00;0.62;0.00;0.00;0.62;2.30;1.30;;;25.00;31.40;;;;;;2230183;62;20365;-65
2022/07/10 10:51:58;0.00;0.00;0.62;0.00;0.00;0.62;2.67;1.57;;;25.00;31.40;;;;;;2229836;62;20590;-70
2022/07/10 10:55:07;0.00;0.00;0.62;0.00;0.00;0.62;5.23;2.10;;;25.10;31.50;;;;;;2229795;62;20739;-71
2022/07/10 10:58:13;0.00;0.00;0.62;0.00;0.00;0.62;1.90;1.30;;;25.10;30.90;;;;;;2229191;62;20453;-67
2022/07/10 11:01:04;0.00;0.00;0.62;0.00;0.00;0.62;2.37;1.40;;;25.10;30.80;;;;;;2229879;62;20405;-66
2022/07/10 11:04:19;0.00;0.00;0.62;0.00;0.00;0.62;2.43;1.47;;;25.20;30.10;;;;;;2229883;62;20794;-69
2022/07/10 11:07:04;0.00;0.00;0.62;0.00;0.00;0.62;2.83;1.30;;;25.20;30.10;;;;;;2230103;62;20368;-68
2022/07/10 11:09:49;0.00;0.00;0.62;0.00;0.00;0.62;3.60;1.67;;;25.20;30.00;;;;;;2230042;62;20389;-68
2022/07/10 11:13:00;0.00;0.00;0.62;0.00;0.00;0.62;6.13;1.87;;;25.20;29.80;;;;;;2229425;62;20376;-68
2022/07/10 11:15:47;0.00;0.00;0.62;0.00;0.00;0.62;3.60;1.60;;;25.20;29.50;;;;;;2230370;62;20365;-65
2022/07/10 11:18:35;0.00;0.00;0.62;0.00;0.00;0.62;3.83;1.87;;;25.20;29.40;;;;;;2229930;62;20364;-66